Shenandoah, Pennsylvania
Current Conditions -  °F | °C
As of 5:35 PM on Tuesday 21 Oct 2014 (Local Time) from KHZL Reporting Station
Overcast Overcast  
Wind Chill: 55°   Ceiling: 3200
Heat Index: 55°   Visibility: 10mi
Dew Point: 46°   Wind: 6mph
Humidity: 72%   Direction: 340°NNW
Pressure: 29.88"   Gusts: NA
Location:  40.82°N, 76.2°W
Report Text: KHZL 212135Z AUTO 34005KT 10SM BKN032 OVC037 13/08 A2988 RMK AO2 LTG DSNT E
Loading
Personal Weather Stations






























Interactive Weather Map
Tropical Storm Tracking
New forecast layout! Learn more

10-Day Weather Forecast

Advertisements
Track Severe Weather on mobile